Terminal Aerodrome Forecast
Issued by NWS

Home | Current Version | Previous Version | Text Only | Print | Product List | Glossary On
Versions: 1 2 3 4 5 6 7 8 9 10 11 12 13
844
FTUS44 KLIX 241735
TAFMSY
TAF
KMSY 241735Z 2418/2518 09010G17KT P6SM VCSH FEW030 SCT050 SCT250
      TEMPO 2418/2422 VRB13G25KT 2SM TSRA BKN030CB
     FM242200 09008KT P6SM SCT040
     FM250400 00000KT P6SM FEW045 FEW110
     FM251400 06008KT P6SM SCT030 SCT110=

USA.gov is the U.S. government's official web portal to all federal, state and local government web resources and services.